Nearby METAR Reports

 

KMTN - Baltimore/Martin, Maryland, USA
Distance from station: SSE 8mi, 13km
Updated: Sun, 21-Dec-2014 5:18am EST
Overcast
Overcast
 Wind from WNW
Wind: WNW 3 mph , 6 km/h
Temperature: 32°F , 0°C
Dew Point: 28°F , -2°C
Humidity: 87%
Barometer: 30.33 inHg , 1027.1 hPa
Clouds: Overcast
Visibility: 10 miles , 16 km
Cloud details: Overcast 7000 ft
2014/12/21 10:18 KMTN 211018Z AUTO 30003KT 10SM OVC070 00/M02 A3033 RMK AO2
KDMH - Baltimore/Dwntwn, Maryland, USA
Distance from station: SW 12mi, 19km
Updated: Sun, 21-Dec-2014 4:54am EST

 
Temperature: 34°F , 1°C
Dew Point: 23°F , -5°C
Humidity: 65%
Barometer: 30.30 inHg , 1026.1 hPa
2014/12/21 09:54 KDMH 210954Z AUTO 01/M05 A3030 RMK AO1 SLP261 T00111050
 
KBWI - Balto/Wash Intl, Maryland, USA
Distance from station: SSW 20mi, 33km
Updated: Sun, 21-Dec-2014 4:54am EST
Overcast
Overcast
 Wind from NW
Wind: NW 3 mph , 6 km/h
Temperature: 32°F , 0°C
Dew Point: 25°F , -4°C
Humidity: 75%
Barometer: 30.30 inHg , 1026.1 hPa
Clouds: Overcast
Visibility: 8 miles , 13 km
Cloud details: Overcast 7000 ft
2014/12/21 09:54 KBWI 210954Z 32003KT 8SM OVC070 00/M04 A3030 RMK AO2 SLP263 T00001044
KDMW - Carroll Cnty, Maryland, USA
Distance from station: WNW 30mi, 48km
Updated: Sun, 21-Dec-2014 5:15am EST
Overcast
Overcast
 Wind from calm
Wind: Calm
Temperature: 28°F , -2°C
Dew Point: 23°F , -5°C
Humidity: 80%
Barometer: 30.27 inHg , 1025.1 hPa
Clouds: Overcast
Visibility: 10 miles , 16 km
Cloud details: Overcast 7000 ft
2014/12/21 10:15 KDMW 211015Z AUTO 00000KT 10SM OVC070 M02/M05 A3027 RMK AO2
 
KNAK - Annapolis/Naval, Maryland, USA
Distance from station: S 30mi, 48km
Updated: Sun, 21-Dec-2014 4:54am EST
Overcast
Overcast
 Wind from calm
Wind: Calm
Temperature: 34°F , 1°C
Dew Point: 27°F , -3°C
Humidity: 75%
Barometer: 30.30 inHg , 1026.1 hPa
Clouds: Overcast
Visibility: 7 miles , 11 km
Cloud details: Overcast 7500 ft
2014/12/21 09:54 KNAK 210954Z AUTO 00000KT 7SM OVC075 01/M03 A3030 RMK AO2 SLP263 T00111028
KW29 - Stevensville, Maryland, USA
Distance from station: SSE 31mi, 50km
Updated: Sun, 21-Dec-2014 5:17am EST

 Wind from calm
Wind: Calm
Temperature: 32°F , 0°C
Dew Point: 30°F , -1°C
Humidity: 93%
Barometer: 30.31 inHg , 1026.4 hPa
Visibility: 10 miles , 16 km
2014/12/21 10:17 KW29 211017Z AUTO 00000KT 10SM 00/M01 A3031 RMK AO1
 
KCGS - College Park, Maryland, USA
Distance from station: SW 38mi, 61km
Updated: Sun, 21-Dec-2014 5:15am EST
Overcast
Overcast
 Wind from calm
Wind: Calm
Temperature: 34°F , 1°C
Dew Point: 28°F , -2°C
Humidity: 81%
Barometer: 30.31 inHg , 1026.4 hPa
Clouds: Overcast
Visibility: 10 miles , 16 km
Cloud details: Overcast 7000 ft
2014/12/21 10:15 KCGS 211015Z AUTO 00000KT 10SM OVC070 01/M02 A3031 RMK AO1
KGAI - Gaithersburg, Maryland, USA
Distance from station: WSW 40mi, 65km
Updated: Sun, 21-Dec-2014 5:15am EST
Overcast
Overcast
 Wind from calm
Wind: Calm
Temperature: 30°F , -1°C
Dew Point: 21°F , -6°C
Humidity: 69%
Barometer: 30.33 inHg , 1027.1 hPa
Clouds: Overcast
Visibility: 10 miles , 16 km
Cloud details: Mostly cloudy 4300 ft
Overcast 6500 ft
2014/12/21 10:15 KGAI 211015Z 00000KT 10SM BKN043 OVC065 M01/M06 A3033 RMK AO1
 
KTHV - York, Pennsylvania, USA
Distance from station: NNW 40mi, 65km
Updated: Sun, 21-Dec-2014 4:53am EST
Overcast
Overcast
 Wind from calm
Wind: Calm
Temperature: 27°F , -3°C
Dew Point: 23°F , -5°C
Humidity: 86%
Barometer: 30.28 inHg , 1025.4 hPa
Clouds: Overcast
Visibility: 8 miles , 13 km
Cloud details: Partly cloudy 3700 ft
Overcast 7500 ft
2014/12/21 09:53 KTHV 210953Z AUTO 00000KT 8SM SCT037 OVC075 M03/M05 A3028 RMK AO2 SLP264 T10281050
KFDK - Frederick, Maryland, USA
Distance from station: W 47mi, 75km
Updated: Sun, 21-Dec-2014 5:15am EST
Overcast
Overcast
 Wind from calm
Wind: Calm
Temperature: 32°F , 0°C
Dew Point: 25°F , -4°C
Humidity: 75%
Barometer: 30.33 inHg , 1027.1 hPa
Clouds: Overcast
Visibility: 10 miles , 16 km
Cloud details: Overcast 7000 ft
2014/12/21 10:15 KFDK 211015Z AUTO 00000KT 10SM OVC070 00/M04 A3033 RMK AO2
 
KESN - Easton/Newnam, Maryland, USA
Distance from station: SSE 48mi, 78km
Updated: Sun, 21-Dec-2014 5:28am EST
Overcast
Overcast
 Wind from calm
Wind: Calm
Temperature: 32°F , 0°C
Dew Point: 32°F , 0°C
Humidity: 100%
Barometer: 30.34 inHg , 1027.4 hPa
Clouds: Overcast
Visibility: 7 miles , 11 km
Cloud details: Overcast 7500 ft
2014/12/21 10:28 KESN 211028Z AUTO 00000KT 7SM OVC075 00/00 A3034 RMK AO2 T00030000
KDCA - Washington/Natl, Washington D.c., USA
Distance from station: SW 49mi, 79km
Updated: Sun, 21-Dec-2014 4:52am EST
Overcast
Overcast
 Wind from ENE
Wind: ENE 3 mph , 6 km/h
Temperature: 37°F , 3°C
Dew Point: 25°F , -4°C
Humidity: 60%
Barometer: 30.32 inHg , 1026.8 hPa
Clouds: Overcast
Visibility: 10 miles , 16 km
Cloud details: Few Clouds 5500 ft
Overcast 7000 ft
2014/12/21 09:52 KDCA 210952Z 06003KT 10SM FEW055 OVC070 03/M04 A3032 RMK AO2 SLP265 T00281044
 
KLNS - Lancaster, Pennsylvania, USA
Distance from station: N 49mi, 79km
Updated: Sun, 21-Dec-2014 4:53am EST
Mostly cloudy
Mostly cloudy
 Wind from WNW
Wind: WNW 5 mph , 7 km/h
Temperature: 27°F , -3°C
Wind Chill: 21°F , -6°C
Dew Point: 21°F , -6°C
Humidity: 80%
Barometer: 30.29 inHg , 1025.7 hPa
Clouds: Mostly cloudy
Visibility: 9 miles , 14 km
Cloud details: Mostly cloudy 3100 ft
Mostly cloudy 8500 ft
2014/12/21 09:53 KLNS 210953Z AUTO 29004KT 9SM BKN031 BKN085 M03/M06 A3029 RMK AO2 SLP261 T10281056
KILG - Wilmington, Delaware, USA
Distance from station: ENE 50mi, 81km
Updated: Sun, 21-Dec-2014 4:51am EST
Overcast
Overcast
 Wind from NW
Wind: NW 3 mph , 6 km/h
Temperature: 28°F , -2°C
Dew Point: 25°F , -4°C
Humidity: 86%
Barometer: 30.30 inHg , 1026.1 hPa
Clouds: Overcast
Visibility: 8 miles , 13 km
Cloud details: Overcast 8000 ft
2014/12/21 09:51 KILG 210951Z 32003KT 8SM OVC080 M02/M04 A3030 RMK AO2 SLP262 T10171044